If you wish to contribute or participate in the discussions about articles you are invited to join SKYbrary as a registered user

 Actions

Charleville Airport

From SKYbrary Wiki

YBCV
Airport
ICAO: YBCV – IATA: CTL
Summary
Name Charleville Airport
Region Asia and Pacific
Territory "YB" is not in the list (AG, AN, AY, BG, BI, BK, C, CT, DA, DB, ...) of allowed values for the "ICAO Territory" property.
Location , Queensland
Serving Charlieville
Elevation 305.714 m
1,003 ft
1,003 ft305.714 m
Type medium airport
Coordinates 26° 24' 48.00" S, 146° 15' 45.00" E
Runways
Designator Length Width Surface ROPS
12/30 1524 m5,000 ft
30 m98.425 ft
ASP /
18/36 1067 m3,500.656 ft
23 m75.459 ft
ASP /


METAR
Observation YBCV 200200Z AUTO 06011KT 9999 // NCD 38/M04 Q1011
Station Charleville Airport
Date/Time 20 November 2019 02:00:00
Wind direction 60°
Wind speed 11 kts
Lowest cloud amount no clouds detected
Temperature 38°C
Dew point
Humidity 6%
QNH 1011 hPa
Weather condition n/a